createdAt,value
2023-04-19T00:02:34.355Z,74.90
2023-04-19T00:07:38.046Z,75.00
2023-04-19T00:12:41.643Z,75.20
2023-04-19T00:17:46.846Z,75.50
2023-04-19T00:22:50.349Z,75.80
2023-04-19T00:27:54.183Z,75.90
2023-04-19T00:32:59.165Z,75.40
2023-04-19T00:38:05.621Z,75.90
2023-04-19T00:43:09.133Z,75.70
2023-04-19T00:48:15.538Z,75.60
2023-04-19T00:53:19.274Z,75.90
2023-04-19T00:58:22.723Z,75.80
2023-04-19T01:03:29.614Z,75.40
2023-04-19T01:08:33.259Z,75.50
2023-04-19T01:13:36.825Z,75.60
2023-04-19T01:18:41.702Z,75.00
2023-04-19T01:23:46.903Z,73.80
2023-04-19T01:28:51.161Z,73.50
2023-04-19T01:33:54.568Z,74.00
2023-04-19T01:38:59.386Z,74.20
2023-04-19T01:44:02.770Z,73.40
2023-04-19T01:49:06.313Z,72.70
2023-04-19T01:54:11.124Z,72.00
2023-04-19T01:59:14.643Z,71.70
2023-04-19T02:04:19.838Z,71.10
2023-04-19T02:09:24.584Z,70.30
2023-04-19T02:14:28.064Z,68.00
2023-04-19T02:19:31.808Z,64.70
2023-04-19T02:24:37.062Z,63.10
2023-04-19T02:29:41.261Z,63.80
2023-04-19T02:34:44.781Z,64.60
2023-04-19T02:39:49.556Z,65.70
2023-04-19T02:44:52.959Z,65.60
2023-04-19T02:49:56.442Z,64.20
2023-04-19T02:55:01.238Z,61.50
2023-04-19T03:00:06.592Z,61.10
2023-04-19T03:05:11.013Z,61.40
2023-04-19T03:10:16.093Z,61.40
2023-04-19T03:15:19.785Z,62.30
2023-04-19T03:20:23.376Z,62.60
2023-04-19T03:25:28.696Z,63.50
2023-04-19T03:30:32.448Z,62.90
2023-04-19T03:35:35.975Z,62.10
2023-04-19T03:40:40.949Z,61.80
2023-04-19T03:45:44.359Z,61.90
2023-04-19T03:50:48.121Z,60.50
2023-04-19T03:55:53.264Z,60.70
2023-04-19T04:00:56.919Z,62.70
2023-04-19T04:06:00.332Z,63.60
2023-04-19T04:11:05.421Z,64.20
2023-04-19T04:16:08.956Z,64.60
2023-04-19T04:21:12.409Z,64.60
2023-04-19T04:26:17.339Z,63.10
2023-04-19T04:31:21.348Z,63.00
2023-04-19T04:36:26.032Z,67.10
2023-04-19T04:41:31.530Z,71.10
2023-04-19T04:46:35.369Z,72.30
2023-04-19T04:51:38.938Z,73.50
2023-04-19T04:56:43.959Z,74.10
2023-04-19T05:01:47.625Z,73.60
2023-04-19T05:06:51.117Z,74.10
2023-04-19T05:11:56.181Z,75.90
2023-04-19T05:16:59.583Z,77.50
2023-04-19T05:22:03.086Z,77.00
2023-04-19T05:27:08.153Z,76.60
2023-04-19T05:32:12.090Z,75.40
2023-04-19T05:37:15.605Z,74.40
2023-04-19T05:42:20.640Z,73.50
2023-04-19T05:47:24.202Z,73.20
2023-04-19T05:52:27.731Z,71.50
2023-04-19T05:57:33.055Z,73.60
2023-04-19T06:02:36.870Z,72.80
2023-04-19T06:07:43.777Z,73.10
2023-04-19T06:12:55.424Z,71.60
2023-04-19T06:17:59.969Z,71.10
2023-04-19T06:23:03.860Z,70.30
2023-04-19T06:28:08.678Z,70.80
2023-04-19T06:33:12.224Z,71.40
2023-04-19T06:38:15.750Z,70.60
2023-04-19T06:43:21.409Z,71.00
2023-04-19T06:48:24.824Z,71.20
2023-04-19T06:53:28.511Z,70.50
2023-04-19T06:58:35.157Z,70.80
2023-04-19T07:03:39.882Z,70.80
2023-04-19T07:13:53.687Z,70.10
2023-04-19T07:18:57.938Z,70.70
2023-04-19T07:24:01.682Z,69.70
2023-04-19T07:29:06.718Z,70.20
2023-04-19T07:34:10.819Z,68.70
2023-04-19T07:39:14.223Z,70.10
2023-04-19T07:44:19.549Z,69.30
2023-04-19T07:49:23.195Z,67.90
2023-04-19T07:54:26.659Z,68.00
2023-04-19T07:59:33.407Z,68.50
2023-04-19T08:04:37.521Z,68.10
2023-04-19T08:09:41.107Z,67.80
2023-04-19T08:14:58.614Z,69.00
2023-04-19T08:20:03.731Z,67.10
2023-04-19T08:25:08.481Z,67.00
2023-04-19T08:30:14.422Z,67.50
2023-04-19T08:35:18.682Z,66.60
2023-04-19T08:40:22.584Z,66.00
2023-04-19T08:45:29.511Z,65.40
2023-04-19T08:50:42.633Z,65.70
2023-04-19T08:56:10.751Z,66.80
2023-04-19T09:01:30.894Z,67.50
2023-04-19T09:06:38.152Z,68.30
2023-04-19T09:11:41.957Z,69.80
2023-04-19T09:16:47.192Z,69.60
2023-04-19T09:21:51.995Z,70.10
2023-04-19T09:26:57.941Z,70.70
2023-04-19T09:32:03.245Z,69.80
2023-04-19T09:37:27.941Z,71.30
2023-04-19T09:48:07.870Z,70.30
2023-04-19T09:53:13.495Z,71.40
2023-04-19T09:58:17.060Z,70.40
2023-04-19T10:03:23.914Z,70.60
2023-04-19T10:08:28.932Z,70.50
2023-04-19T10:13:32.370Z,70.50
2023-04-19T10:18:37.640Z,70.60
2023-04-19T10:23:41.559Z,71.20
2023-04-19T10:28:45.018Z,70.90
2023-04-19T10:33:49.994Z,71.30
2023-04-19T10:38:55.846Z,70.40
2023-04-19T10:44:12.853Z,71.10
2023-04-19T10:49:18.093Z,71.00
2023-04-19T10:54:32.529Z,69.70
2023-04-19T10:59:37.370Z,69.60
2023-04-19T11:05:03.930Z,70.10
2023-04-19T11:10:08.994Z,70.20
2023-04-19T11:15:12.434Z,70.10
2023-04-19T11:20:17.511Z,70.20
2023-04-19T11:25:22.293Z,70.90
2023-04-19T11:30:31.493Z,71.20
2023-04-19T11:35:36.686Z,72.10
2023-04-19T11:40:40.727Z,72.40
2023-04-19T11:45:44.339Z,72.10
2023-04-19T11:50:50.080Z,73.10
2023-04-19T11:55:54.689Z,73.10
2023-04-19T12:01:00.995Z,74.40
2023-04-19T12:06:16.747Z,75.00
2023-04-19T12:11:23.058Z,75.60
2023-04-19T12:16:29.348Z,76.40
2023-04-19T12:21:34.395Z,76.60
2023-04-19T12:26:55.831Z,77.40
2023-04-19T12:31:59.753Z,78.00
2023-04-19T12:37:04.904Z,78.20
2023-04-19T12:42:08.629Z,79.10
2023-04-19T12:47:12.060Z,78.80
2023-04-19T12:52:16.830Z,79.20
2023-04-19T12:57:20.497Z,78.70
2023-04-19T13:02:24.180Z,78.60
2023-04-19T13:07:29.599Z,78.70
2023-04-19T13:12:33.011Z,78.90
2023-04-19T13:17:37.755Z,78.70
2023-04-19T13:22:42.837Z,77.80
2023-04-19T13:27:47.126Z,77.70
2023-04-19T13:32:50.586Z,77.70
2023-04-19T13:37:56.516Z,77.50
2023-04-19T13:43:00.048Z,77.10
2023-04-19T13:48:03.674Z,76.60
2023-04-19T13:53:09.046Z,76.40
2023-04-19T13:58:12.486Z,76.50
2023-04-19T14:03:16.107Z,76.40
2023-04-19T14:08:21.045Z,76.60
2023-04-19T14:13:24.689Z,77.30
2023-04-19T14:18:28.263Z,77.40
2023-04-19T14:23:34.256Z,76.30
2023-04-19T14:28:37.715Z,76.00
2023-04-19T14:33:41.260Z,75.40
2023-04-19T14:38:46.006Z,75.50
2023-04-19T14:43:51.032Z,74.90
2023-04-19T14:48:54.422Z,75.00
2023-04-19T14:53:59.821Z,74.30
2023-04-19T14:59:03.458Z,74.20
2023-04-19T15:04:06.977Z,74.00
2023-04-19T15:09:12.161Z,73.50
2023-04-19T15:14:15.846Z,73.20
2023-04-19T15:19:19.491Z,73.50
2023-04-19T15:24:24.577Z,73.10
2023-04-19T15:29:28.229Z,74.00
2023-04-19T15:34:31.678Z,72.70
2023-04-19T15:39:36.743Z,71.90
2023-04-19T15:44:42.717Z,71.20
2023-04-19T15:49:48.286Z,70.40
2023-04-19T15:54:53.182Z,70.50
2023-04-19T15:59:56.614Z,68.90
2023-04-19T16:05:00.353Z,67.70
2023-04-19T16:10:05.729Z,66.00
2023-04-19T16:15:10.161Z,66.00
2023-04-19T16:20:14.327Z,65.50
2023-04-19T16:25:19.199Z,65.60
2023-04-19T16:30:23.540Z,65.60
2023-04-19T16:35:27.368Z,66.40
2023-04-19T16:40:32.150Z,66.90
2023-04-19T16:45:36.056Z,67.10
2023-04-19T16:50:39.395Z,67.10
2023-04-19T16:55:44.182Z,67.30
2023-04-19T17:00:48.320Z,67.70
2023-04-19T17:05:51.752Z,67.60
2023-04-19T17:10:56.715Z,67.60
2023-04-19T17:16:00.280Z,67.10
2023-04-19T17:21:04.016Z,66.30
2023-04-19T17:26:08.873Z,67.10
2023-04-19T17:31:12.348Z,67.60
2023-04-19T17:36:16.044Z,68.00
2023-04-19T17:41:20.850Z,68.10
2023-04-19T17:46:24.681Z,68.30
2023-04-19T17:51:28.352Z,69.10
2023-04-19T17:56:33.207Z,69.40
2023-04-19T18:01:36.886Z,69.40
2023-04-19T18:06:40.423Z,69.30
2023-04-19T18:11:45.242Z,69.50
2023-04-19T18:16:48.838Z,69.60
2023-04-19T18:21:52.371Z,69.40
2023-04-19T18:26:58.171Z,69.20
2023-04-19T18:32:01.923Z,69.20
2023-04-19T18:37:16.070Z,68.80
2023-04-19T18:42:20.963Z,68.90
2023-04-19T18:47:27.152Z,68.80
2023-04-19T18:52:30.689Z,68.30
2023-04-19T18:57:38.817Z,67.90
2023-04-19T19:02:43.989Z,67.90
2023-04-19T19:07:48.925Z,67.50
2023-04-19T19:12:54.086Z,67.40
2023-04-19T19:17:57.568Z,66.80
2023-04-19T19:23:01.236Z,66.90
2023-04-19T19:28:10.110Z,67.50
2023-04-19T19:33:14.143Z,68.50
2023-04-19T19:38:17.926Z,68.00
2023-04-19T19:43:22.764Z,68.20
2023-04-19T19:48:29.020Z,68.40
2023-04-19T19:53:33.591Z,69.60
2023-04-19T19:58:49.720Z,68.90
2023-04-19T20:03:56.102Z,69.10
2023-04-19T20:09:00.025Z,69.30
2023-04-19T20:14:04.921Z,69.40
2023-04-19T20:19:10.303Z,69.30
2023-04-19T20:24:13.934Z,69.30
2023-04-19T20:29:18.826Z,68.90
2023-04-19T20:34:22.348Z,69.10
2023-04-19T20:39:26.682Z,69.20
2023-04-19T20:44:31.450Z,69.20
2023-04-19T20:49:35.473Z,69.20
2023-04-19T20:54:38.962Z,69.00
2023-04-19T20:59:45.033Z,69.50
2023-04-19T21:04:48.532Z,69.70
2023-04-19T21:09:52.202Z,69.70
2023-04-19T21:14:57.014Z,69.60
2023-04-19T21:20:01.857Z,69.40
2023-04-19T21:25:05.943Z,69.50
2023-04-19T21:30:12.258Z,69.70
2023-04-19T21:35:15.782Z,69.90
2023-04-19T21:40:19.204Z,69.70
2023-04-19T21:45:24.142Z,69.70
2023-04-19T21:50:28.221Z,69.60
2023-04-19T21:55:32.337Z,69.80
2023-04-19T22:00:37.128Z,69.80
2023-04-19T22:05:40.958Z,69.70
2023-04-19T22:10:44.816Z,70.00
2023-04-19T22:15:49.805Z,70.20
2023-04-19T22:20:53.998Z,70.60
2023-04-19T22:25:57.632Z,70.90
2023-04-19T22:31:02.550Z,70.90
2023-04-19T22:36:06.605Z,71.00
2023-04-19T22:41:10.039Z,71.10
2023-04-19T22:46:15.012Z,71.20
2023-04-19T22:51:19.116Z,71.20
2023-04-19T22:56:22.732Z,70.90
2023-04-19T23:01:27.668Z,70.70
2023-04-19T23:06:32.519Z,70.70
2023-04-19T23:11:36.340Z,71.00
2023-04-19T23:16:41.409Z,71.30
2023-04-19T23:21:44.859Z,71.60
2023-04-19T23:26:48.270Z,71.80
2023-04-19T23:31:53.117Z,71.90
2023-04-19T23:36:56.850Z,72.00
2023-04-19T23:42:00.344Z,71.90
2023-04-19T23:47:05.249Z,71.60
2023-04-19T23:52:09.173Z,71.90
2023-04-19T23:57:12.874Z,72.20
